createdAt,value
2019-03-13T00:24:48.273Z,53.80
2019-03-13T00:54:52.096Z,57.50
2019-03-13T01:24:55.721Z,60.40
2019-03-13T01:54:59.319Z,63.60
2019-03-13T02:25:03.177Z,56.80
2019-03-13T02:55:08.899Z,54.40
2019-03-13T03:25:14.967Z,62.70
2019-03-13T03:55:18.693Z,80.20
2019-03-13T04:25:25.354Z,69.70
2019-03-13T04:55:29.034Z,64.20
2019-03-13T05:25:32.631Z,90.60
2019-03-13T05:55:36.218Z,93.00
2019-03-13T06:25:39.898Z,91.90
2019-03-13T06:55:43.518Z,91.30
2019-03-13T07:25:54.595Z,90.40
2019-03-13T07:56:02.376Z,90.30
2019-03-13T08:26:15.787Z,90.00
2019-03-13T08:56:36.968Z,83.80
2019-03-13T09:26:51.394Z,81.00
2019-03-13T09:57:14.972Z,78.30
2019-03-13T10:27:29.076Z,74.70
2019-03-13T10:57:40.444Z,68.70
2019-03-13T11:27:45.690Z,64.50
2019-03-13T11:57:53.364Z,69.30
2019-03-13T12:27:58.687Z,66.10
2019-03-13T12:58:06.704Z,65.70
2019-03-13T13:28:10.524Z,63.30
2019-03-13T13:58:14.129Z,65.40
2019-03-13T14:28:17.811Z,68.60
2019-03-13T14:58:21.433Z,69.70
2019-03-13T15:28:25.033Z,67.90
2019-03-13T15:58:28.723Z,61.30
2019-03-13T16:28:32.310Z,66.20
2019-03-13T16:58:36.891Z,66.40
2019-03-13T17:28:40.540Z,70.90
2019-03-13T17:58:44.191Z,71.40
2019-03-13T18:28:47.855Z,72.50
2019-03-13T18:58:51.502Z,75.50
2019-03-13T19:28:55.098Z,76.50
2019-03-13T19:58:58.817Z,75.80
2019-03-13T20:29:02.499Z,75.80
2019-03-13T20:59:06.794Z,84.90
2019-03-13T21:29:10.390Z,90.30
2019-03-13T21:59:14.060Z,88.30
2019-03-13T22:29:17.725Z,90.00
2019-03-13T22:59:21.343Z,90.20
2019-03-13T23:29:24.957Z,92.60
2019-03-13T23:59:28.559Z,92.70
